Terminal Aerodrome Forecast
Issued by NWS Sterling, VA

Home | Current Version | Previous Version | Text Only | Print | Product List | Glossary On
Versions: 1 2 3 4 5 6 7 8 9 10 11 12 13 14 15 16
097
FTUS41 KLWX 272334
TAFMRB
TAF
KMRB 272334Z 2800/2824 31008KT P6SM FEW070
     FM280500 30004KT P6SM SKC
     FM281800 24004KT P6SM FEW250
     FM282300 18005KT P6SM FEW250=

USA.gov is the U.S. government's official web portal to all federal, state and local government web resources and services.